Pilot No. 4 — WDA5463 — position and weather

sailwx.info

Track history (hours):
 
Tides and Currents Weather Stations Pressure Air Temp Water Temp Dewpoint Dewpoint Depression Visibility Wind Speed Wind Dir Waves Ship Positions

Pilot No. 4

Owner: P E P Inc, FORT LAUDERDALE, FL. More information available from US FCC via Universal Licensing System and Coast Guard Vessel Documentation Center.

Last reported at 2016-Jan-31 11:33 UTC. Time now 2016-Feb-09 11:50 UTC.
Position N 26°06' W 080°06'.
Warning: this ship's position is 9 days out of date.

MMSI: 495270931.

Date/timePositionNaut miles runAvg speedWind from/ knotsBaromVisibWave heightAir tempDewpointWater temp
2016-Jan-31 11:33N 26°06' W 080°06'3 3.1
2016-Jan-31 10:33N 26°06' W 080°03'2 1.8
2016-Jan-31 09:33N 26°04' W 080°02'3 3.3
2016-Jan-31 08:33N 26°06' W 080°05'2 2.2
2016-Jan-31 07:33N 26°04' W 080°07'1 1.0
2016-Jan-31 06:33N 26°05' W 080°07'1 0.7
2016-Jan-31 05:33N 26°06' W 080°06'1 0.8
2016-Jan-31 04:33N 26°06' W 080°07'0 0.1
2016-Jan-31 03:33N 26°06' W 080°07'1 0.0
2016-Jan-29 07:33N 26°05' W 080°07'3 2.6
2016-Jan-29 06:33N 26°06' W 080°04'1 0.9
2016-Jan-29 05:33N 26°06' W 080°05'2 0.9
2016-Jan-29 03:12N 26°06' W 080°07'1 0.8
2016-Jan-29 02:33N 26°06' W 080°07'0 0.2
2016-Jan-29 01:33N 26°06' W 080°07'0 0.3
2016-Jan-29 00:25N 26°06' W 080°07'0 0.5
2016-Jan-28 23:33N 26°06' W 080°07'0 0.2
2016-Jan-28 21:33N 26°06' W 080°07'1 0.9
2016-Jan-28 20:33N 26°06' W 080°07'1 0.9
2016-Jan-28 19:33N 26°05' W 080°07'1 0.7
2016-Jan-28 18:17N 26°06' W 080°07'1 0.8
2016-Jan-28 17:33N 26°06' W 080°07'0 0.1
2016-Jan-28 16:33N 26°06' W 080°07'0 0.4
2016-Jan-28 15:33N 26°06' W 080°07'0 0.3
2016-Jan-28 14:31N 26°06' W 080°07'2 1.6
2016-Jan-28 13:34N 26°06' W 080°06'1 0.7
2016-Jan-28 12:34N 26°06' W 080°07'1 0.2
2016-Jan-28 08:31N 26°06' W 080°07'2 1.7
2016-Jan-28 07:33N 26°05' W 080°07'1 1.0
2016-Jan-28 06:16N 26°06' W 080°07'3 3.8
2016-Jan-28 05:33N 26°05' W 080°04'2 2.2
2016-Jan-28 04:33N 26°05' W 080°07'0 0.1
2016-Jan-28 02:33N 26°05' W 080°07'1 0.9
2016-Jan-28 01:33N 26°04' W 080°07'1 1.3
2016-Jan-28 00:33N 26°06' W 080°06'1 0.7
2016-Jan-27 23:33N 26°06' W 080°07'0 0.1
2016-Jan-27 20:21N 26°06' W 080°07'0 0.4
2016-Jan-27 19:33N 26°06' W 080°07'1 0.7
2016-Jan-27 18:33N 26°05' W 080°07'1 0.2
2016-Jan-27 12:27N 26°06' W 080°07'1 0.7
2016-Jan-27 11:33N 26°06' W 080°07'1 0.8
2016-Jan-27 10:33N 26°06' W 080°06'3 2.8
2016-Jan-27 09:33N 26°06' W 080°03'4 3.7
2016-Jan-27 08:31N 26°06' W 080°07'0 0.0
2016-Jan-27 07:33N 26°06' W 080°07'0 0.0
2016-Jan-27 06:33N 26°06' W 080°07'0 0.0
2016-Jan-27 05:33N 26°06' W 080°07'1 1.0
2016-Jan-27 04:33N 26°05' W 080°07'1 0.3
2016-Jan-27 02:13N 26°06' W 080°07'2 3.6
2016-Jan-27 01:34N 26°06' W 080°05'2 2.1
2016-Jan-27 00:33N 26°05' W 080°07'0 0.3
2016-Jan-26 23:33N 26°06' W 080°07'1 1.3
2016-Jan-26 22:33N 26°04' W 080°07'4 4.5
2016-Jan-26 21:33N 26°07' W 080°03'4 1.7
2016-Jan-26 19:11N 26°06' W 080°07'1 1.3
2016-Jan-26 18:33N 26°05' W 080°07'0 0.1
2016-Jan-26 15:34N 26°05' W 080°07'0 0.3
2016-Jan-26 14:33N 26°05' W 080°07'0 0.4
2016-Jan-26 13:33N 26°06' W 080°07'0 0.2
2016-Jan-26 12:33N 26°06' W 080°07'0 0.3
2016-Jan-26 11:33N 26°06' W 080°07'2 2.4
2016-Jan-26 10:34N 26°06' W 080°05'2 1.8
2016-Jan-26 09:34N 26°06' W 080°03'4 4.1
2016-Jan-26 08:32N 26°06' W 080°07'1 0.2
2016-Jan-26 03:33N 26°05' W 080°07'0 0.2
2016-Jan-26 02:33N 26°06' W 080°07'0 0.2
2016-Jan-26 01:33N 26°06' W 080°07'1 1.0
2016-Jan-26 00:34N 26°06' W 080°06'1 0.7
2016-Jan-25 22:21N 26°06' W 080°07'2 2.1
2016-Jan-25 21:33N 26°06' W 080°05'1 0.9
2016-Jan-25 20:33N 26°06' W 080°06'1 0.7
2016-Jan-25 19:33N 26°05' W 080°07'3 3.2
2016-Jan-25 18:33N 26°06' W 080°03'3 3.4
2016-Jan-25 17:33N 26°05' W 080°07'1 1.4
2016-Jan-25 16:33N 26°05' W 080°06'2 0.7
2016-Jan-25 14:04N 26°06' W 080°07'0 0.0
2016-Jan-25 13:15N 26°06' W 080°07'1 0.8
2016-Jan-25 12:34N 26°06' W 080°07'0 0.2
2016-Jan-25 11:34N 26°05' W 080°07'2 2.0
2016-Jan-25 10:33N 26°06' W 080°05'2 2.1
2016-Jan-25 09:33N 26°06' W 080°03'1 0.7
2016-Jan-25 08:34N 26°06' W 080°03'2 1.8
2016-Jan-25 07:33N 26°06' W 080°05'2 2.0
2016-Jan-25 06:32N 26°06' W 080°07'1 1.0
2016-Jan-25 05:33N 26°06' W 080°06'0 0.1
2016-Jan-25 04:33N 26°06' W 080°07'0 0.1
2016-Jan-24 22:33N 26°05' W 080°07'0 0.3
2016-Jan-24 21:33N 26°06' W 080°07'0 0.2
2016-Jan-24 20:34N 26°05' W 080°07'0 0.3
2016-Jan-24 19:33N 26°05' W 080°07'1 0.7
2016-Jan-24 18:33N 26°04' W 080°07'2 1.7
2016-Jan-24 17:33N 26°06' W 080°07'0 0.2
2016-Jan-24 16:33N 26°06' W 080°07'1 0.7
2016-Jan-24 15:33N 26°05' W 080°07'0 0.2
2016-Jan-24 14:33N 26°06' W 080°07'1 0.8
2016-Jan-24 13:33N 26°06' W 080°07'1 0.8
2016-Jan-24 12:33N 26°06' W 080°07'0 0.2
2016-Jan-24 11:19N 26°06' W 080°06'2 3.2
2016-Jan-24 10:34N 26°06' W 080°04'2 0.1
2016-Jan-23 22:33N 26°06' W 080°06'0 0.4
2016-Jan-23 21:33N 26°06' W 080°06'1 1.3
2016-Jan-23 20:33N 26°06' W 080°07'1 0.7
2016-Jan-23 19:33N 26°06' W 080°07'1 1.3
2016-Jan-23 18:33N 26°06' W 080°06'1 1.4
2016-Jan-23 17:33N 26°06' W 080°07'0 0.0
2016-Jan-23 13:27N 26°06' W 080°07'1 0.8
2016-Jan-23 12:33N 26°06' W 080°07'0 0.1
2016-Jan-23 11:27N 26°06' W 080°07'0 0.3
2016-Jan-23 10:33N 26°05' W 080°07'5 5.4
2016-Jan-23 09:33N 26°06' W 080°01'6 1.9
2016-Jan-23 06:30N 26°06' W 080°07'2 1.8
2016-Jan-23 05:33N 26°06' W 080°05'2 1.6
2016-Jan-23 04:28N 26°06' W 080°07'0 0.0
2016-Jan-23 02:30N 26°06' W 080°07'1 0.8
2016-Jan-23 01:33N 26°05' W 080°07'0 0.4
2016-Jan-23 00:33N 26°05' W 080°07'2 2.5
2016-Jan-22 23:33N 26°06' W 080°04'3 1.0
2016-Jan-22 20:28N 26°06' W 080°07'1 1.2
2016-Jan-22 19:33N 26°05' W 080°07'1 1.0
2016-Jan-22 18:33N 26°06' W 080°07'1 0.8
2016-Jan-22 17:33N 26°05' W 080°07'0 0.4
2016-Jan-22 16:33N 26°06' W 080°07'3 2.7
2016-Jan-22 15:34N 26°05' W 080°04'3 1.0
2016-Jan-22 12:33N 26°06' W 080°07'1 0.7
2016-Jan-22 11:33N 26°05' W 080°07'4 3.7
2016-Jan-22 10:33N 26°06' W 080°03'4 3.1
2016-Jan-22 09:17N 26°06' W 080°07'2 2.1
2016-Jan-22 08:33N 26°06' W 080°06'1 0.8
2016-Jan-22 07:34N 26°06' W 080°07'0 0.1
2016-Jan-22 02:32N 26°05' W 080°07'2 1.9
2016-Jan-22 01:33N 26°06' W 080°05'2 1.8
2016-Jan-22 00:33N 26°05' W 080°07'0 0.0
2016-Jan-21 23:33N 26°05' W 080°07'0 0.5
2016-Jan-21 22:33N 26°06' W 080°07'0 0.0
2016-Jan-21 15:33N 26°05' W 080°07'1 0.2
2016-Jan-21 12:15N 26°06' W 080°07'1 1.5
2016-Jan-21 11:33N 26°05' W 080°07'  
Track history (hours):
 
Tides and Currents Weather Stations Pressure Air Temp Water Temp Dewpoint Dewpoint Depression Visibility Wind Speed Wind Dir Waves Ship Positions

Pilot No. 4

Owner: P E P Inc, FORT LAUDERDALE, FL. More information available from US FCC via Universal Licensing System and Coast Guard Vessel Documentation Center.

Last reported at 2016-Jan-31 11:33 UTC. Time now 2016-Feb-09 11:50 UTC.
Position N 26°06' W 080°06'.
Warning: this ship's position is 9 days out of date.

MMSI: 495270931.

Date/timePositionNaut miles runAvg speedWind from/ knotsBaromVisibWave heightAir tempDewpointWater temp
2016-Jan-31 11:33N 26°06' W 080°06'3 3.1
2016-Jan-31 10:33N 26°06' W 080°03'2 1.8
2016-Jan-31 09:33N 26°04' W 080°02'3 3.3
2016-Jan-31 08:33N 26°06' W 080°05'2 2.2
2016-Jan-31 07:33N 26°04' W 080°07'1 1.0
2016-Jan-31 06:33N 26°05' W 080°07'1 0.7
2016-Jan-31 05:33N 26°06' W 080°06'1 0.8
2016-Jan-31 04:33N 26°06' W 080°07'0 0.1
2016-Jan-31 03:33N 26°06' W 080°07'1 0.0
2016-Jan-29 07:33N 26°05' W 080°07'3 2.6
2016-Jan-29 06:33N 26°06' W 080°04'1 0.9
2016-Jan-29 05:33N 26°06' W 080°05'2 0.9
2016-Jan-29 03:12N 26°06' W 080°07'1 0.8
2016-Jan-29 02:33N 26°06' W 080°07'0 0.2
2016-Jan-29 01:33N 26°06' W 080°07'0 0.3
2016-Jan-29 00:25N 26°06' W 080°07'0 0.5
2016-Jan-28 23:33N 26°06' W 080°07'0 0.2
2016-Jan-28 21:33N 26°06' W 080°07'1 0.9
2016-Jan-28 20:33N 26°06' W 080°07'1 0.9
2016-Jan-28 19:33N 26°05' W 080°07'1 0.7
2016-Jan-28 18:17N 26°06' W 080°07'1 0.8
2016-Jan-28 17:33N 26°06' W 080°07'0 0.1
2016-Jan-28 16:33N 26°06' W 080°07'0 0.4
2016-Jan-28 15:33N 26°06' W 080°07'0 0.3
2016-Jan-28 14:31N 26°06' W 080°07'2 1.6
2016-Jan-28 13:34N 26°06' W 080°06'1 0.7
2016-Jan-28 12:34N 26°06' W 080°07'1 0.2
2016-Jan-28 08:31N 26°06' W 080°07'2 1.7
2016-Jan-28 07:33N 26°05' W 080°07'1 1.0
2016-Jan-28 06:16N 26°06' W 080°07'3 3.8
2016-Jan-28 05:33N 26°05' W 080°04'2 2.2
2016-Jan-28 04:33N 26°05' W 080°07'0 0.1
2016-Jan-28 02:33N 26°05' W 080°07'1 0.9
2016-Jan-28 01:33N 26°04' W 080°07'1 1.3
2016-Jan-28 00:33N 26°06' W 080°06'1 0.7
2016-Jan-27 23:33N 26°06' W 080°07'0 0.1
2016-Jan-27 20:21N 26°06' W 080°07'0 0.4
2016-Jan-27 19:33N 26°06' W 080°07'1 0.7
2016-Jan-27 18:33N 26°05' W 080°07'1 0.2
2016-Jan-27 12:27N 26°06' W 080°07'1 0.7
2016-Jan-27 11:33N 26°06' W 080°07'1 0.8
2016-Jan-27 10:33N 26°06' W 080°06'3 2.8
2016-Jan-27 09:33N 26°06' W 080°03'4 3.7
2016-Jan-27 08:31N 26°06' W 080°07'0 0.0
2016-Jan-27 07:33N 26°06' W 080°07'0 0.0
2016-Jan-27 06:33N 26°06' W 080°07'0 0.0
2016-Jan-27 05:33N 26°06' W 080°07'1 1.0
2016-Jan-27 04:33N 26°05' W 080°07'1 0.3
2016-Jan-27 02:13N 26°06' W 080°07'2 3.6
2016-Jan-27 01:34N 26°06' W 080°05'2 2.1
2016-Jan-27 00:33N 26°05' W 080°07'0 0.3
2016-Jan-26 23:33N 26°06' W 080°07'1 1.3
2016-Jan-26 22:33N 26°04' W 080°07'4 4.5
2016-Jan-26 21:33N 26°07' W 080°03'4 1.7
2016-Jan-26 19:11N 26°06' W 080°07'1 1.3
2016-Jan-26 18:33N 26°05' W 080°07'0 0.1
2016-Jan-26 15:34N 26°05' W 080°07'0 0.3
2016-Jan-26 14:33N 26°05' W 080°07'0 0.4
2016-Jan-26 13:33N 26°06' W 080°07'0 0.2
2016-Jan-26 12:33N 26°06' W 080°07'0 0.3
2016-Jan-26 11:33N 26°06' W 080°07'2 2.4
2016-Jan-26 10:34N 26°06' W 080°05'2 1.8
2016-Jan-26 09:34N 26°06' W 080°03'4 4.1
2016-Jan-26 08:32N 26°06' W 080°07'1 0.2
2016-Jan-26 03:33N 26°05' W 080°07'0 0.2
2016-Jan-26 02:33N 26°06' W 080°07'0 0.2
2016-Jan-26 01:33N 26°06' W 080°07'1 1.0
2016-Jan-26 00:34N 26°06' W 080°06'1 0.7
2016-Jan-25 22:21N 26°06' W 080°07'2 2.1
2016-Jan-25 21:33N 26°06' W 080°05'1 0.9
2016-Jan-25 20:33N 26°06' W 080°06'1 0.7
2016-Jan-25 19:33N 26°05' W 080°07'3 3.2
2016-Jan-25 18:33N 26°06' W 080°03'3 3.4
2016-Jan-25 17:33N 26°05' W 080°07'1 1.4
2016-Jan-25 16:33N 26°05' W 080°06'2 0.7
2016-Jan-25 14:04N 26°06' W 080°07'0 0.0
2016-Jan-25 13:15N 26°06' W 080°07'1 0.8
2016-Jan-25 12:34N 26°06' W 080°07'0 0.2
2016-Jan-25 11:34N 26°05' W 080°07'2 2.0
2016-Jan-25 10:33N 26°06' W 080°05'2 2.1
2016-Jan-25 09:33N 26°06' W 080°03'1 0.7
2016-Jan-25 08:34N 26°06' W 080°03'2 1.8
2016-Jan-25 07:33N 26°06' W 080°05'2 2.0
2016-Jan-25 06:32N 26°06' W 080°07'1 1.0
2016-Jan-25 05:33N 26°06' W 080°06'0 0.1
2016-Jan-25 04:33N 26°06' W 080°07'0 0.1
2016-Jan-24 22:33N 26°05' W 080°07'0 0.3
2016-Jan-24 21:33N 26°06' W 080°07'0 0.2
2016-Jan-24 20:34N 26°05' W 080°07'0 0.3
2016-Jan-24 19:33N 26°05' W 080°07'1 0.7
2016-Jan-24 18:33N 26°04' W 080°07'2 1.7
2016-Jan-24 17:33N 26°06' W 080°07'0 0.2
2016-Jan-24 16:33N 26°06' W 080°07'1 0.7
2016-Jan-24 15:33N 26°05' W 080°07'0 0.2
2016-Jan-24 14:33N 26°06' W 080°07'1 0.8
2016-Jan-24 13:33N 26°06' W 080°07'1 0.8
2016-Jan-24 12:33N 26°06' W 080°07'0 0.2
2016-Jan-24 11:19N 26°06' W 080°06'2 3.2
2016-Jan-24 10:34N 26°06' W 080°04'2 0.1
2016-Jan-23 22:33N 26°06' W 080°06'0 0.4
2016-Jan-23 21:33N 26°06' W 080°06'1 1.3
2016-Jan-23 20:33N 26°06' W 080°07'1 0.7
2016-Jan-23 19:33N 26°06' W 080°07'1 1.3
2016-Jan-23 18:33N 26°06' W 080°06'1 1.4
2016-Jan-23 17:33N 26°06' W 080°07'0 0.0
2016-Jan-23 13:27N 26°06' W 080°07'1 0.8
2016-Jan-23 12:33N 26°06' W 080°07'0 0.1
2016-Jan-23 11:27N 26°06' W 080°07'0 0.3
2016-Jan-23 10:33N 26°05' W 080°07'5 5.4
2016-Jan-23 09:33N 26°06' W 080°01'6 1.9
2016-Jan-23 06:30N 26°06' W 080°07'2 1.8
2016-Jan-23 05:33N 26°06' W 080°05'2 1.6
2016-Jan-23 04:28N 26°06' W 080°07'0 0.0
2016-Jan-23 02:30N 26°06' W 080°07'1 0.8
2016-Jan-23 01:33N 26°05' W 080°07'0 0.4
2016-Jan-23 00:33N 26°05' W 080°07'2 2.5
2016-Jan-22 23:33N 26°06' W 080°04'3 1.0
2016-Jan-22 20:28N 26°06' W 080°07'1 1.2
2016-Jan-22 19:33N 26°05' W 080°07'1 1.0
2016-Jan-22 18:33N 26°06' W 080°07'1 0.8
2016-Jan-22 17:33N 26°05' W 080°07'0 0.4
2016-Jan-22 16:33N 26°06' W 080°07'3 2.7
2016-Jan-22 15:34N 26°05' W 080°04'3 1.0
2016-Jan-22 12:33N 26°06' W 080°07'1 0.7
2016-Jan-22 11:33N 26°05' W 080°07'4 3.7
2016-Jan-22 10:33N 26°06' W 080°03'4 3.1
2016-Jan-22 09:17N 26°06' W 080°07'2 2.1
2016-Jan-22 08:33N 26°06' W 080°06'1 0.8
2016-Jan-22 07:34N 26°06' W 080°07'0 0.1
2016-Jan-22 02:32N 26°05' W 080°07'2 1.9
2016-Jan-22 01:33N 26°06' W 080°05'2 1.8
2016-Jan-22 00:33N 26°05' W 080°07'0 0.0
2016-Jan-21 23:33N 26°05' W 080°07'0 0.5
2016-Jan-21 22:33N 26°06' W 080°07'0 0.0
2016-Jan-21 15:33N 26°05' W 080°07'1 0.2
2016-Jan-21 12:15N 26°06' W 080°07'1 1.5
2016-Jan-21 11:33N 26°05' W 080°07'  

Dump ship's entire track history